sensor_id;sensor_type;location;lat;lon;timestamp;pressure;altitude;pressure_sealevel;temperature;humidity
22241;BME280;11289;52.524;13.694;2022-12-07T00:01:06;100642.59;;;2.89;90.90
22241;BME280;11289;52.524;13.694;2022-12-07T00:03:32;100640.13;;;2.92;91.01
22241;BME280;11289;52.524;13.694;2022-12-07T00:05:58;100643.41;;;2.94;90.79
22241;BME280;11289;52.524;13.694;2022-12-07T00:08:24;100610.28;;;2.81;90.83
22241;BME280;11289;52.524;13.694;2022-12-07T00:10:49;100610.56;;;2.74;90.34
22241;BME280;11289;52.524;13.694;2022-12-07T00:13:14;100605.13;;;2.69;90.02
22241;BME280;11289;52.524;13.694;2022-12-07T00:15:40;100624.56;;;2.72;89.93
22241;BME280;11289;52.524;13.694;2022-12-07T00:18:05;100618.81;;;2.69;89.65
22241;BME280;11289;52.524;13.694;2022-12-07T00:20:30;100625.94;;;2.70;89.76
22241;BME280;11289;52.524;13.694;2022-12-07T00:22:56;100628.13;;;2.68;89.65
22241;BME280;11289;52.524;13.694;2022-12-07T00:25:22;100630.88;;;2.68;89.10
22241;BME280;11289;52.524;13.694;2022-12-07T00:27:47;100629.78;;;2.64;89.75
22241;BME280;11289;52.524;13.694;2022-12-07T00:30:12;100623.22;;;2.54;89.22
22241;BME280;11289;52.524;13.694;2022-12-07T00:32:38;100628.16;;;2.57;89.24
22241;BME280;11289;52.524;13.694;2022-12-07T00:35:04;100607.88;;;2.48;88.82
22241;BME280;11289;52.524;13.694;2022-12-07T00:37:29;100625.69;;;2.56;88.93
22241;BME280;11289;52.524;13.694;2022-12-07T00:39:55;100621.56;;;2.48;88.35
22241;BME280;11289;52.524;13.694;2022-12-07T00:42:20;100620.50;;;2.49;88.25
22241;BME280;11289;52.524;13.694;2022-12-07T00:44:45;100580.50;;;2.17;88.67
22241;BME280;11289;52.524;13.694;2022-12-07T00:47:11;100615.84;;;2.39;89.15
22241;BME280;11289;52.524;13.694;2022-12-07T00:49:36;100623.25;;;2.44;89.65
22241;BME280;11289;52.524;13.694;2022-12-07T00:52:01;100620.50;;;2.39;89.52
22241;BME280;11289;52.524;13.694;2022-12-07T00:54:27;100616.13;;;2.43;89.87
22241;BME280;11289;52.524;13.694;2022-12-07T00:56:52;100621.03;;;2.46;89.31
22241;BME280;11289;52.524;13.694;2022-12-07T00:59:18;100608.19;;;2.41;89.73
22241;BME280;11289;52.524;13.694;2022-12-07T01:01:43;100583.81;;;2.30;89.69
22241;BME280;11289;52.524;13.694;2022-12-07T01:04:08;100576.69;;;2.29;89.38
22241;BME280;11289;52.524;13.694;2022-12-07T01:06:34;100597.50;;;2.40;89.73
22241;BME280;11289;52.524;13.694;2022-12-07T01:09:00;100586.28;;;2.31;89.31
22241;BME280;11289;52.524;13.694;2022-12-07T01:11:29;100605.13;;;2.48;89.50
22241;BME280;11289;52.524;13.694;2022-12-07T01:13:56;100608.44;;;2.45;88.94
22241;BME280;11289;52.524;13.694;2022-12-07T01:16:23;100606.81;;;2.44;88.59
22241;BME280;11289;52.524;13.694;2022-12-07T01:18:52;100565.16;;;2.16;88.97
22241;BME280;11289;52.524;13.694;2022-12-07T01:21:25;100598.03;;;2.42;88.32
22241;BME280;11289;52.524;13.694;2022-12-07T01:23:51;100592.84;;;2.35;88.40
22241;BME280;11289;52.524;13.694;2022-12-07T01:26:19;100598.84;;;2.37;87.89
22241;BME280;11289;52.524;13.694;2022-12-07T01:28:45;100591.47;;;2.33;87.89
22241;BME280;11289;52.524;13.694;2022-12-07T01:31:19;100596.94;;;2.33;87.21
22241;BME280;11289;52.524;13.694;2022-12-07T01:33:47;100593.94;;;2.29;87.49
22241;BME280;11289;52.524;13.694;2022-12-07T01:36:25;100588.19;;;2.25;87.23
22241;BME280;11289;52.524;13.694;2022-12-07T01:38:54;100585.72;;;2.19;86.67
22241;BME280;11289;52.524;13.694;2022-12-07T01:41:22;100580.25;;;2.14;86.14
22241;BME280;11289;52.524;13.694;2022-12-07T01:44:27;100584.63;;;2.09;86.09
22241;BME280;11289;52.524;13.694;2022-12-07T01:47:01;100582.19;;;2.08;86.95
22241;BME280;11289;52.524;13.694;2022-12-07T01:52:13;100576.97;;;2.01;86.38
22241;BME280;11289;52.524;13.694;2022-12-07T01:54:40;100571.50;;;2.01;87.00
22241;BME280;11289;52.524;13.694;2022-12-07T01:57:07;100569.31;;;1.98;87.58
22241;BME280;11289;52.524;13.694;2022-12-07T01:59:33;100567.38;;;2.04;87.31
22241;BME280;11289;52.524;13.694;2022-12-07T02:02:02;100552.59;;;2.00;87.15
22241;BME280;11289;52.524;13.694;2022-12-07T02:04:29;100560.81;;;2.05;87.62
22241;BME280;11289;52.524;13.694;2022-12-07T02:06:54;100551.50;;;2.01;87.27
22241;BME280;11289;52.524;13.694;2022-12-07T02:09:20;100540.53;;;1.96;88.01
22241;BME280;11289;52.524;13.694;2022-12-07T02:11:45;100558.63;;;2.07;87.83
22241;BME280;11289;52.524;13.694;2022-12-07T02:14:11;100552.88;;;2.03;87.56
22241;BME280;11289;52.524;13.694;2022-12-07T02:21:02;100560.81;;;2.05;87.50
22241;BME280;11289;52.524;13.694;2022-12-07T02:23:27;100548.47;;;1.97;87.73
22241;BME280;11289;52.524;13.694;2022-12-07T02:32:03;100550.13;;;1.98;87.89
22241;BME280;11289;52.524;13.694;2022-12-07T02:37:12;100542.19;;;1.97;87.22
22241;BME280;11289;52.524;13.694;2022-12-07T02:39:49;100531.50;;;1.90;87.44
22241;BME280;11289;52.524;13.694;2022-12-07T02:42:20;100546.59;;;1.98;87.63
22241;BME280;11289;52.524;13.694;2022-12-07T02:44:49;100529.59;;;1.85;87.49
22241;BME280;11289;52.524;13.694;2022-12-07T02:47:17;100536.16;;;1.89;87.51
22241;BME280;11289;52.524;13.694;2022-12-07T02:49:45;100521.94;;;1.87;86.82
22241;BME280;11289;52.524;13.694;2022-12-07T02:52:11;100525.50;;;1.88;86.96
22241;BME280;11289;52.524;13.694;2022-12-07T02:54:36;100513.72;;;1.82;86.84
22241;BME280;11289;52.524;13.694;2022-12-07T02:57:35;100528.78;;;1.85;86.47
22241;BME280;11289;52.524;13.694;2022-12-07T03:00:03;100526.59;;;1.82;86.82
22241;BME280;11289;52.524;13.694;2022-12-07T03:02:48;100524.94;;;1.81;86.98
22241;BME280;11289;52.524;13.694;2022-12-07T03:08:13;100519.19;;;1.72;86.44
22241;BME280;11289;52.524;13.694;2022-12-07T03:10:57;100506.06;;;1.69;87.04
22241;BME280;11289;52.524;13.694;2022-12-07T03:13:34;100503.88;;;1.66;86.71
22241;BME280;11289;52.524;13.694;2022-12-07T03:18:31;100496.19;;;1.58;86.88
22241;BME280;11289;52.524;13.694;2022-12-07T03:21:02;100494.00;;;1.60;86.96
22241;BME280;11289;52.524;13.694;2022-12-07T03:23:32;100491.25;;;1.49;86.16
22241;BME280;11289;52.524;13.694;2022-12-07T03:26:00;100491.81;;;1.46;85.74
22241;BME280;11289;52.524;13.694;2022-12-07T03:28:35;100486.34;;;1.41;86.38
22241;BME280;11289;52.524;13.694;2022-12-07T03:36:35;100466.63;;;1.39;87.09
22241;BME280;11289;52.524;13.694;2022-12-07T03:41:39;100439.28;;;1.24;87.05
22241;BME280;11289;52.524;13.694;2022-12-07T03:44:05;100443.91;;;1.23;86.86
22241;BME280;11289;52.524;13.694;2022-12-07T03:52:08;100437.38;;;1.24;87.07
22241;BME280;11289;52.524;13.694;2022-12-07T03:54:47;100432.69;;;1.25;87.24
22241;BME280;11289;52.524;13.694;2022-12-07T03:57:15;100427.25;;;1.19;87.28
22241;BME280;11289;52.524;13.694;2022-12-07T03:59:41;100428.34;;;1.24;87.49
22241;BME280;11289;52.524;13.694;2022-12-07T04:02:11;100414.94;;;1.17;87.17
22241;BME280;11289;52.524;13.694;2022-12-07T04:04:38;100409.16;;;1.13;87.15
22241;BME280;11289;52.524;13.694;2022-12-07T04:07:04;100409.47;;;1.17;87.39
22241;BME280;11289;52.524;13.694;2022-12-07T04:09:29;100413.84;;;1.23;87.19
22241;BME280;11289;52.524;13.694;2022-12-07T04:11:55;100400.44;;;1.16;87.95
22241;BME280;11289;52.524;13.694;2022-12-07T04:14:20;100402.09;;;1.23;87.62
22241;BME280;11289;52.524;13.694;2022-12-07T04:16:46;100404.53;;;1.24;87.61
22241;BME280;11289;52.524;13.694;2022-12-07T04:19:12;100399.06;;;1.24;87.51
22241;BME280;11289;52.524;13.694;2022-12-07T04:21:38;100396.59;;;1.17;87.60
22241;BME280;11289;52.524;13.694;2022-12-07T04:24:17;100385.09;;;1.10;87.23
22241;BME280;11289;52.524;13.694;2022-12-07T04:26:43;100383.19;;;1.06;88.05
22241;BME280;11289;52.524;13.694;2022-12-07T04:29:10;100388.38;;;1.07;87.76
22241;BME280;11289;52.524;13.694;2022-12-07T04:31:38;100400.97;;;1.13;87.63
22241;BME280;11289;52.524;13.694;2022-12-07T04:34:04;100394.69;;;1.08;87.40
22241;BME280;11289;52.524;13.694;2022-12-07T04:36:30;100394.44;;;1.09;88.20
22241;BME280;11289;52.524;13.694;2022-12-07T04:38:56;100392.25;;;1.06;88.23
22241;BME280;11289;52.524;13.694;2022-12-07T04:41:23;100379.94;;;1.03;88.17
22241;BME280;11289;52.524;13.694;2022-12-07T04:44:02;100388.94;;;1.04;88.18
22241;BME280;11289;52.524;13.694;2022-12-07T04:46:30;100381.00;;;1.02;88.60
22241;BME280;11289;52.524;13.694;2022-12-07T04:48:56;100379.91;;;0.98;88.58
22241;BME280;11289;52.524;13.694;2022-12-07T04:51:24;100371.97;;;0.97;88.55
22241;BME280;11289;52.524;13.694;2022-12-07T04:53:50;100379.91;;;0.98;88.73
22241;BME280;11289;52.524;13.694;2022-12-07T04:56:17;100373.34;;;0.99;88.73
22241;BME280;11289;52.524;13.694;2022-12-07T04:58:44;100359.41;;;0.96;88.86
22241;BME280;11289;52.524;13.694;2022-12-07T05:01:10;100363.78;;;0.97;89.25
22241;BME280;11289;52.524;13.694;2022-12-07T05:03:37;100355.88;;;0.90;89.32
22241;BME280;11289;52.524;13.694;2022-12-07T05:06:02;100355.31;;;0.88;89.40
22241;BME280;11289;52.524;13.694;2022-12-07T05:08:28;100351.75;;;0.88;89.45
22241;BME280;11289;52.524;13.694;2022-12-07T05:10:53;100333.44;;;0.78;89.81
22241;BME280;11289;52.524;13.694;2022-12-07T05:13:18;100349.00;;;0.93;89.93
22241;BME280;11289;52.524;13.694;2022-12-07T05:15:44;100350.13;;;0.92;89.93
22241;BME280;11289;52.524;13.694;2022-12-07T05:18:10;100349.00;;;0.93;90.08
22241;BME280;11289;52.524;13.694;2022-12-07T05:20:38;100335.34;;;0.88;89.88
22241;BME280;11289;52.524;13.694;2022-12-07T05:23:03;100320.56;;;0.78;90.03
22241;BME280;11289;52.524;13.694;2022-12-07T05:25:29;100350.91;;;0.97;90.16
22241;BME280;11289;52.524;13.694;2022-12-07T05:27:55;100356.69;;;1.01;90.44
22241;BME280;11289;52.524;13.694;2022-12-07T05:30:22;100343.84;;;0.96;90.36
22241;BME280;11289;52.524;13.694;2022-12-07T05:32:47;100330.41;;;0.90;90.21
22241;BME280;11289;52.524;13.694;2022-12-07T05:35:13;100344.63;;;0.97;90.13
22241;BME280;11289;52.524;13.694;2022-12-07T05:37:38;100336.16;;;0.98;90.37
22241;BME280;11289;52.524;13.694;2022-12-07T05:40:05;100340.81;;;1.03;90.39
22241;BME280;11289;52.524;13.694;2022-12-07T05:42:31;100330.41;;;1.00;90.28
22241;BME280;11289;52.524;13.694;2022-12-07T05:44:56;100336.72;;;0.95;90.21
22241;BME280;11289;52.524;13.694;2022-12-07T05:47:21;100326.59;;;0.96;90.50
22241;BME280;11289;52.524;13.694;2022-12-07T05:49:47;100325.50;;;0.97;90.53
22241;BME280;11289;52.524;13.694;2022-12-07T05:52:12;100313.47;;;0.93;90.74
22241;BME280;11289;52.524;13.694;2022-12-07T05:54:38;100316.19;;;0.93;90.96
22241;BME280;11289;52.524;13.694;2022-12-07T05:57:03;100309.63;;;0.89;91.14
22241;BME280;11289;52.524;13.694;2022-12-07T05:59:28;100322.78;;;0.97;91.11
22241;BME280;11289;52.524;13.694;2022-12-07T06:01:58;100323.88;;;1.01;91.21
22241;BME280;11289;52.524;13.694;2022-12-07T06:04:25;100314.56;;;1.02;91.38
22241;BME280;11289;52.524;13.694;2022-12-07T06:06:52;100295.44;;;0.92;91.23
22241;BME280;11289;52.524;13.694;2022-12-07T06:09:19;100299.00;;;0.92;91.58
22241;BME280;11289;52.524;13.694;2022-12-07T06:11:45;100314.03;;;1.05;91.96
22241;BME280;11289;52.524;13.694;2022-12-07T06:14:29;100309.38;;;1.06;91.90
22241;BME280;11289;52.524;13.694;2022-12-07T06:16:54;100302.25;;;1.04;91.95
22241;BME280;11289;52.524;13.694;2022-12-07T06:19:19;100296.78;;;1.10;92.01
22241;BME280;11289;52.524;13.694;2022-12-07T06:21:45;100273.28;;;1.03;92.17
22241;BME280;11289;52.524;13.694;2022-12-07T06:24:14;100288.31;;;1.16;92.34
22241;BME280;11289;52.524;13.694;2022-12-07T06:26:41;100286.13;;;1.18;92.23
22241;BME280;11289;52.524;13.694;2022-12-07T06:29:06;100277.63;;;1.20;92.66
22241;BME280;11289;52.524;13.694;2022-12-07T06:31:32;100277.34;;;1.21;92.74
22241;BME280;11289;52.524;13.694;2022-12-07T06:34:03;100274.63;;;1.21;92.56
22241;BME280;11289;52.524;13.694;2022-12-07T06:36:29;100270.00;;;1.22;92.84
22241;BME280;11289;52.524;13.694;2022-12-07T06:38:54;100268.31;;;1.26;93.13
22241;BME280;11289;52.524;13.694;2022-12-07T06:41:20;100254.94;;;1.19;92.92
22241;BME280;11289;52.524;13.694;2022-12-07T06:43:46;100275.44;;;1.32;93.08
22241;BME280;11289;52.524;13.694;2022-12-07T06:46:11;100274.59;;;1.32;93.28
22241;BME280;11289;52.524;13.694;2022-12-07T06:48:36;100277.88;;;1.34;93.33
22241;BME280;11289;52.524;13.694;2022-12-07T06:51:02;100277.88;;;1.34;93.34
22241;BME280;11289;52.524;13.694;2022-12-07T06:53:27;100282.53;;;1.38;93.78
22241;BME280;11289;52.524;13.694;2022-12-07T06:55:52;100274.03;;;1.35;93.75
22241;BME280;11289;52.524;13.694;2022-12-07T06:58:18;100270.78;;;1.38;93.86
22241;BME280;11289;52.524;13.694;2022-12-07T07:00:44;100281.97;;;1.47;93.90
22241;BME280;11289;52.524;13.694;2022-12-07T07:03:10;100277.81;;;1.49;94.26
22241;BME280;11289;52.524;13.694;2022-12-07T07:05:35;100266.34;;;1.42;94.13
22241;BME280;11289;52.524;13.694;2022-12-07T07:08:01;100268.53;;;1.55;94.33
22241;BME280;11289;52.524;13.694;2022-12-07T07:10:27;100255.94;;;1.49;93.93
22241;BME280;11289;52.524;13.694;2022-12-07T07:12:53;100244.47;;;1.42;93.93
22241;BME280;11289;52.524;13.694;2022-12-07T07:15:18;100257.59;;;1.45;94.13
22241;BME280;11289;52.524;13.694;2022-12-07T07:17:44;100277.25;;;1.63;94.29
22241;BME280;11289;52.524;13.694;2022-12-07T07:20:09;100239.56;;;1.39;94.21
22241;BME280;11289;52.524;13.694;2022-12-07T07:22:35;100274.25;;;1.64;94.23
22241;BME280;11289;52.524;13.694;2022-12-07T07:25:00;100278.59;;;1.70;94.34
22241;BME280;11289;52.524;13.694;2022-12-07T07:27:26;100273.41;;;1.69;94.38
22241;BME280;11289;52.524;13.694;2022-12-07T07:29:51;100266.28;;;1.68;94.17
22241;BME280;11289;52.524;13.694;2022-12-07T07:32:16;100270.06;;;1.77;94.12
22241;BME280;11289;52.524;13.694;2022-12-07T07:34:42;100269.81;;;1.73;94.33
22241;BME280;11289;52.524;13.694;2022-12-07T07:37:07;100274.16;;;1.80;94.36
22241;BME280;11289;52.524;13.694;2022-12-07T07:39:32;100268.97;;;1.83;94.78
22241;BME280;11289;52.524;13.694;2022-12-07T07:41:58;100256.63;;;1.86;94.52
22241;BME280;11289;52.524;13.694;2022-12-07T07:44:23;100255.25;;;1.88;94.46
22241;BME280;11289;52.524;13.694;2022-12-07T07:46:48;100258.53;;;1.90;94.90
22241;BME280;11289;52.524;13.694;2022-12-07T07:49:14;100260.13;;;1.97;94.69
22241;BME280;11289;52.524;13.694;2022-12-07T07:51:39;100251.38;;;1.95;94.66
22241;BME280;11289;52.524;13.694;2022-12-07T07:54:04;100248.63;;;2.00;94.64
22241;BME280;11289;52.524;13.694;2022-12-07T07:56:30;100260.34;;;2.05;94.88
22241;BME280;11289;52.524;13.694;2022-12-07T07:58:55;100260.06;;;2.07;94.79
22241;BME280;11289;52.524;13.694;2022-12-07T08:01:21;100251.88;;;2.07;94.84
22241;BME280;11289;52.524;13.694;2022-12-07T08:03:47;100259.72;;;2.19;94.98
22241;BME280;11289;52.524;13.694;2022-12-07T08:06:12;100263.84;;;2.21;94.89
22241;BME280;11289;52.524;13.694;2022-12-07T08:08:37;100254.25;;;2.19;94.88
22241;BME280;11289;52.524;13.694;2022-12-07T08:11:08;100259.94;;;2.28;94.37
22241;BME280;11289;52.524;13.694;2022-12-07T08:13:33;100251.78;;;2.22;94.32
22241;BME280;11289;52.524;13.694;2022-12-07T08:16:03;100262.66;;;2.33;94.00
22241;BME280;11289;52.524;13.694;2022-12-07T08:18:29;100256.94;;;2.29;93.67
22241;BME280;11289;52.524;13.694;2022-12-07T08:21:02;100265.94;;;2.35;93.48
22241;BME280;11289;52.524;13.694;2022-12-07T08:23:27;100261.03;;;2.32;93.45
22241;BME280;11289;52.524;13.694;2022-12-07T08:25:53;100237.00;;;2.18;93.34
22241;BME280;11289;52.524;13.694;2022-12-07T08:28:18;100263.97;;;2.40;93.13
22241;BME280;11289;52.524;13.694;2022-12-07T08:30:43;100267.50;;;2.46;92.67
22241;BME280;11289;52.524;13.694;2022-12-07T08:33:10;100265.06;;;2.44;92.90
22241;BME280;11289;52.524;13.694;2022-12-07T08:35:35;100269.97;;;2.48;92.15
22241;BME280;11289;52.524;13.694;2022-12-07T08:38:02;100268.59;;;2.50;92.16
22241;BME280;11289;52.524;13.694;2022-12-07T08:40:27;100263.13;;;2.45;91.92
22241;BME280;11289;52.524;13.694;2022-12-07T08:42:53;100266.41;;;2.47;91.49
22241;BME280;11289;52.524;13.694;2022-12-07T08:45:20;100274.00;;;2.55;91.65
22241;BME280;11289;52.524;13.694;2022-12-07T08:47:51;100263.13;;;2.45;90.94
22241;BME280;11289;52.524;13.694;2022-12-07T08:50:17;100278.41;;;2.51;91.27
22241;BME280;11289;52.524;13.694;2022-12-07T08:52:43;100270.47;;;2.50;90.42
22241;BME280;11289;52.524;13.694;2022-12-07T08:55:10;100283.88;;;2.56;91.08
22241;BME280;11289;52.524;13.694;2022-12-07T08:57:36;100283.91;;;2.51;90.68
22241;BME280;11289;52.524;13.694;2022-12-07T09:00:04;100286.34;;;2.58;90.76
22241;BME280;11289;52.524;13.694;2022-12-07T09:02:31;100272.38;;;2.54;90.72
22241;BME280;11289;52.524;13.694;2022-12-07T09:04:56;100283.09;;;2.51;90.17
22241;BME280;11289;52.524;13.694;2022-12-07T09:07:22;100287.72;;;2.55;89.88
22241;BME280;11289;52.524;13.694;2022-12-07T09:09:47;100260.72;;;2.38;90.09
22241;BME280;11289;52.524;13.694;2022-12-07T09:12:13;100279.75;;;2.59;90.15
22241;BME280;11289;52.524;13.694;2022-12-07T09:14:38;100271.31;;;2.50;89.77
22241;BME280;11289;52.524;13.694;2022-12-07T09:17:08;100283.00;;;2.61;89.13
22241;BME280;11289;52.524;13.694;2022-12-07T09:19:33;100276.72;;;2.60;88.71
22241;BME280;11289;52.524;13.694;2022-12-07T09:21:59;100288.50;;;2.61;87.97
22241;BME280;11289;52.524;13.694;2022-12-07T09:24:24;100294.81;;;2.61;88.12
22241;BME280;11289;52.524;13.694;2022-12-07T09:26:49;100286.03;;;2.65;87.88
22241;BME280;11289;52.524;13.694;2022-12-07T09:29:15;100284.59;;;2.67;87.70
22241;BME280;11289;52.524;13.694;2022-12-07T09:31:40;100284.84;;;2.76;87.35
22241;BME280;11289;52.524;13.694;2022-12-07T09:34:06;100285.66;;;2.76;87.31
22241;BME280;11289;52.524;13.694;2022-12-07T09:36:32;100289.97;;;2.83;87.87
22241;BME280;11289;52.524;13.694;2022-12-07T09:38:58;100292.78;;;2.77;86.65
22241;BME280;11289;52.524;13.694;2022-12-07T09:41:25;100296.63;;;2.76;85.62
22241;BME280;11289;52.524;13.694;2022-12-07T09:43:53;100299.59;;;2.80;86.35
22241;BME280;11289;52.524;13.694;2022-12-07T09:46:23;100273.97;;;2.60;86.18
22241;BME280;11289;52.524;13.694;2022-12-07T09:48:49;100299.06;;;2.78;86.20
22241;BME280;11289;52.524;13.694;2022-12-07T09:51:21;100309.97;;;2.83;85.42
22241;BME280;11289;52.524;13.694;2022-12-07T09:53:47;100302.34;;;2.80;84.32
22241;BME280;11289;52.524;13.694;2022-12-07T09:56:14;100294.66;;;2.82;85.19
22241;BME280;11289;52.524;13.694;2022-12-07T09:58:41;100296.81;;;2.85;85.45
22241;BME280;11289;52.524;13.694;2022-12-07T10:03:33;100298.25;;;2.77;83.50
22241;BME280;11289;52.524;13.694;2022-12-07T10:06:00;100307.00;;;2.79;84.28
22241;BME280;11289;52.524;13.694;2022-12-07T10:08:25;100308.69;;;2.75;83.02
22241;BME280;11289;52.524;13.694;2022-12-07T10:10:53;100318.56;;;2.76;82.64
22241;BME280;11289;52.524;13.694;2022-12-07T10:13:21;100309.03;;;2.69;82.56
22241;BME280;11289;52.524;13.694;2022-12-07T10:21:21;100324.69;;;2.63;82.58
22241;BME280;11289;52.524;13.694;2022-12-07T10:24:14;100314.53;;;2.58;82.25
22241;BME280;11289;52.524;13.694;2022-12-07T10:29:21;100312.16;;;2.47;82.18
22241;BME280;11289;52.524;13.694;2022-12-07T10:32:01;100327.72;;;2.56;82.51
22241;BME280;11289;52.524;13.694;2022-12-07T10:34:36;100335.38;;;2.59;81.80
22241;BME280;11289;52.524;13.694;2022-12-07T10:37:17;100310.75;;;2.54;82.32
22241;BME280;11289;52.524;13.694;2022-12-07T10:39:52;100334.25;;;2.66;82.44
22241;BME280;11289;52.524;13.694;2022-12-07T10:42:23;100326.00;;;2.71;82.27
22241;BME280;11289;52.524;13.694;2022-12-07T10:45:13;100323.25;;;2.71;82.29
22241;BME280;11289;52.524;13.694;2022-12-07T10:51:24;100327.72;;;2.96;81.52
22241;BME280;11289;52.524;13.694;2022-12-07T10:54:06;100321.16;;;2.92;80.87
22241;BME280;11289;52.524;13.694;2022-12-07T11:00:10;100324.75;;;2.87;79.34
22241;BME280;11289;52.524;13.694;2022-12-07T11:08:43;100318.56;;;2.76;78.05
22241;BME280;11289;52.524;13.694;2022-12-07T11:11:22;100316.91;;;2.75;79.14
22241;BME280;11289;52.524;13.694;2022-12-07T11:17:02;100317.47;;;2.77;79.41
22241;BME280;11289;52.524;13.694;2022-12-07T11:19:39;100322.31;;;2.86;80.31
22241;BME280;11289;52.524;13.694;2022-12-07T11:22:16;100312.69;;;2.88;80.68
22241;BME280;11289;52.524;13.694;2022-12-07T11:30:18;100316.25;;;2.89;79.32
22241;BME280;11289;52.524;13.694;2022-12-07T11:33:12;100322.03;;;2.87;80.36
22241;BME280;11289;52.524;13.694;2022-12-07T11:35:53;100313.31;;;2.80;79.88
22241;BME280;11289;52.524;13.694;2022-12-07T11:38:28;100313.31;;;2.80;80.58
22241;BME280;11289;52.524;13.694;2022-12-07T11:41:01;100311.41;;;2.75;80.16
22241;BME280;11289;52.524;13.694;2022-12-07T11:43:54;100308.94;;;2.79;79.96
22241;BME280;11289;52.524;13.694;2022-12-07T11:46:20;100312.50;;;2.79;79.71
22241;BME280;11289;52.524;13.694;2022-12-07T11:49:07;100299.94;;;2.73;79.63
22241;BME280;11289;52.524;13.694;2022-12-07T11:51:37;100311.91;;;2.83;79.89
22241;BME280;11289;52.524;13.694;2022-12-07T11:56:39;100307.25;;;2.83;79.97
22241;BME280;11289;52.524;13.694;2022-12-07T11:59:13;100306.97;;;2.85;79.62
22241;BME280;11289;52.524;13.694;2022-12-07T12:05:06;100307.72;;;2.90;79.59
22241;BME280;11289;52.524;13.694;2022-12-07T12:07:26;100305.81;;;2.91;80.41
22241;BME280;11289;52.524;13.694;2022-12-07T12:09:59;100305.19;;;2.99;79.91
22241;BME280;11289;52.524;13.694;2022-12-07T12:15:25;100297.44;;;3.06;80.31
22241;BME280;11289;52.524;13.694;2022-12-07T12:23:17;100274.19;;;3.04;79.68
22241;BME280;11289;52.524;13.694;2022-12-07T12:25:58;100275.75;;;3.10;79.56
22241;BME280;11289;52.524;13.694;2022-12-07T12:31:35;100273.50;;;3.17;79.77
22241;BME280;11289;52.524;13.694;2022-12-07T12:34:03;100274.59;;;3.16;80.08
22241;BME280;11289;52.524;13.694;2022-12-07T12:47:00;100282.72;;;3.26;79.59
22241;BME280;11289;52.524;13.694;2022-12-07T12:49:41;100274.28;;;3.23;79.80
22241;BME280;11289;52.524;13.694;2022-12-07T12:54:59;100273.97;;;3.24;79.92
22241;BME280;11289;52.524;13.694;2022-12-07T12:57:33;100263.59;;;3.21;79.60
22241;BME280;11289;52.524;13.694;2022-12-07T13:00:00;100261.84;;;3.30;79.96
22241;BME280;11289;52.524;13.694;2022-12-07T13:02:30;100268.72;;;3.28;80.14
22241;BME280;11289;52.524;13.694;2022-12-07T13:05:00;100272.03;;;3.25;79.53
22241;BME280;11289;52.524;13.694;2022-12-07T13:15:36;100272.81;;;3.30;79.24
22241;BME280;11289;52.524;13.694;2022-12-07T13:18:04;100282.09;;;3.35;79.73
22241;BME280;11289;52.524;13.694;2022-12-07T13:20:49;100274.19;;;3.28;79.17
22241;BME280;11289;52.524;13.694;2022-12-07T13:23:18;100275.56;;;3.30;79.31
22241;BME280;11289;52.524;13.694;2022-12-07T13:26:20;100279.66;;;3.33;79.22
22241;BME280;11289;52.524;13.694;2022-12-07T13:29:03;100272.22;;;3.34;79.33
22241;BME280;11289;52.524;13.694;2022-12-07T13:31:44;100272.22;;;3.34;80.19
22241;BME280;11289;52.524;13.694;2022-12-07T13:34:35;100281.59;;;3.33;79.96
22241;BME280;11289;52.524;13.694;2022-12-07T13:37:28;100274.75;;;3.30;79.55
22241;BME280;11289;52.524;13.694;2022-12-07T13:39:57;100265.47;;;3.26;79.23
22241;BME280;11289;52.524;13.694;2022-12-07T13:42:31;100270.34;;;3.29;79.88
22241;BME280;11289;52.524;13.694;2022-12-07T13:44:59;100261.31;;;3.28;79.64
22241;BME280;11289;52.524;13.694;2022-12-07T13:47:36;100262.13;;;3.29;79.35
22241;BME280;11289;52.524;13.694;2022-12-07T13:50:26;100266.25;;;3.26;79.64
22241;BME280;11289;52.524;13.694;2022-12-07T13:52:55;100264.66;;;3.25;79.97
22241;BME280;11289;52.524;13.694;2022-12-07T13:55:21;100263.81;;;3.25;79.65
22241;BME280;11289;52.524;13.694;2022-12-07T13:57:51;100256.69;;;3.24;79.75
22241;BME280;11289;52.524;13.694;2022-12-07T14:03:42;100272.34;;;3.23;79.12
22241;BME280;11289;52.524;13.694;2022-12-07T14:08:30;100265.25;;;3.17;78.81
22241;BME280;11289;52.524;13.694;2022-12-07T14:10:57;100264.47;;;3.17;78.81
22241;BME280;11289;52.524;13.694;2022-12-07T14:13:34;100268.53;;;3.19;78.83
22241;BME280;11289;52.524;13.694;2022-12-07T14:16:04;100273.50;;;3.17;77.99
22241;BME280;11289;52.524;13.694;2022-12-07T14:18:37;100270.47;;;3.19;77.83
22241;BME280;11289;52.524;13.694;2022-12-07T14:21:04;100263.34;;;3.18;78.24
22241;BME280;11289;52.524;13.694;2022-12-07T14:23:30;100279.50;;;3.19;78.70
22241;BME280;11289;52.524;13.694;2022-12-07T14:26:12;100280.09;;;3.16;77.81
22241;BME280;11289;52.524;13.694;2022-12-07T14:28:42;100269.69;;;3.13;77.57
22241;BME280;11289;52.524;13.694;2022-12-07T14:31:16;100256.78;;;3.13;76.87
22241;BME280;11289;52.524;13.694;2022-12-07T14:33:42;100261.16;;;3.14;76.75
22241;BME280;11289;52.524;13.694;2022-12-07T14:36:12;100265.31;;;3.12;76.72
22241;BME280;11289;52.524;13.694;2022-12-07T14:38:38;100268.34;;;3.10;76.31
22241;BME280;11289;52.524;13.694;2022-12-07T14:41:04;100253.84;;;3.05;76.68
22241;BME280;11289;52.524;13.694;2022-12-07T14:43:50;100248.38;;;3.05;76.81
22241;BME280;11289;52.524;13.694;2022-12-07T14:46:15;100245.09;;;3.03;77.08
22241;BME280;11289;52.524;13.694;2022-12-07T14:48:41;100246.16;;;3.07;77.05
22241;BME280;11289;52.524;13.694;2022-12-07T14:51:08;100247.25;;;3.06;76.84